createdAt,value
2023-08-29T00:00:46.942Z,104142.25
2023-08-29T00:04:49.811Z,104136.50
2023-08-29T00:08:52.792Z,104136.50
2023-08-29T00:12:55.700Z,104085.72
2023-08-29T00:16:59.961Z,104049.69
2023-08-29T00:21:02.888Z,104011.00
2023-08-29T00:25:06.247Z,103981.06
2023-08-29T00:29:09.214Z,103957.47
2023-08-29T00:33:13.715Z,103884.72
2023-08-29T00:37:16.682Z,103664.66
2023-08-29T00:41:19.560Z,103624.38
2023-08-29T00:45:22.611Z,103616.75
2023-08-29T00:49:28.795Z,103622.19
2023-08-29T00:53:32.062Z,103607.00
2023-08-29T00:57:35.079Z,103596.56
2023-08-29T01:01:38.306Z,103577.22
2023-08-29T01:05:42.642Z,103545.00
2023-08-29T01:09:45.638Z,103519.16
2023-08-29T01:13:52.959Z,103504.16
2023-08-29T01:18:01.620Z,103485.84
2023-08-29T01:22:13.734Z,103473.06
2023-08-29T01:26:18.668Z,103474.84
2023-08-29T01:30:22.073Z,103480.47
2023-08-29T01:34:25.668Z,103512.28
2023-08-29T01:38:28.782Z,103503.31
2023-08-29T01:42:33.016Z,103504.97
2023-08-29T01:46:35.929Z,103506.06
2023-08-29T01:50:39.787Z,103510.03
2023-08-29T01:54:42.904Z,103514.09
2023-08-29T01:58:48.004Z,103506.00
2023-08-29T02:02:50.937Z,103516.63
2023-08-29T02:06:54.058Z,103497.91
2023-08-29T02:10:56.943Z,103499.13
2023-08-29T02:15:01.232Z,103479.06
2023-08-29T02:19:04.786Z,103471.75
2023-08-29T02:23:07.734Z,103471.50
2023-08-29T02:27:10.649Z,103454.22
2023-08-29T02:31:15.428Z,103457.59
2023-08-29T02:35:18.531Z,103452.59
2023-08-29T02:39:21.546Z,103446.81
2023-08-29T02:43:26.711Z,103440.16
2023-08-29T02:47:31.880Z,103432.38
2023-08-29T02:51:37.685Z,103429.03
2023-08-29T02:55:42.056Z,103425.94
2023-08-29T02:59:44.971Z,103426.72
2023-08-29T03:03:49.383Z,103419.59
2023-08-29T03:07:53.750Z,103412.53
2023-08-29T03:11:56.911Z,103407.88
2023-08-29T03:16:00.739Z,103397.69
2023-08-29T03:20:06.752Z,103386.34
2023-08-29T03:24:09.721Z,103366.88
2023-08-29T03:28:12.880Z,103357.06
2023-08-29T03:32:15.847Z,103345.81
2023-08-29T03:36:21.066Z,103332.66
2023-08-29T03:40:24.067Z,103324.41
2023-08-29T03:44:27.017Z,103318.31
2023-08-29T03:48:30.062Z,103307.63
2023-08-29T03:52:34.406Z,103306.78
2023-08-29T03:56:40.350Z,103300.72
2023-08-29T04:00:44.040Z,103313.31
2023-08-29T04:04:47.278Z,103314.56
2023-08-29T04:08:51.591Z,103312.28
2023-08-29T04:12:54.639Z,103305.91
2023-08-29T04:16:59.124Z,103307.94
2023-08-29T04:21:02.270Z,103299.72
2023-08-29T04:25:07.858Z,103249.53
2023-08-29T04:29:10.872Z,103243.00
2023-08-29T04:33:13.798Z,103251.56
2023-08-29T04:37:17.703Z,103257.06
2023-08-29T04:41:21.998Z,103256.75
2023-08-29T04:45:25.177Z,103273.56
2023-08-29T04:49:29.071Z,103268.06
2023-08-29T04:53:33.440Z,103270.47
2023-08-29T04:57:38.614Z,103270.78
2023-08-29T05:01:41.704Z,103274.56
2023-08-29T05:05:47.253Z,103264.97
2023-08-29T05:09:51.538Z,103268.38
2023-08-29T05:13:55.900Z,103281.97
2023-08-29T05:17:59.508Z,103289.91
2023-08-29T05:22:02.590Z,103299.00
2023-08-29T05:26:06.578Z,103294.22
2023-08-29T05:30:11.559Z,103299.25
2023-08-29T05:34:14.443Z,103303.84
2023-08-29T05:38:17.539Z,103307.03
2023-08-29T05:42:20.516Z,103291.22
2023-08-29T05:46:24.977Z,103286.66
2023-08-29T05:50:27.971Z,103296.06
2023-08-29T05:54:30.957Z,103287.47
2023-08-29T05:58:33.968Z,103284.28
2023-08-29T06:02:38.241Z,103289.28
2023-08-29T06:06:42.242Z,103287.59
2023-08-29T06:10:45.333Z,103279.25
2023-08-29T06:14:48.369Z,103273.81
2023-08-29T06:18:52.788Z,103283.47
2023-08-29T06:22:57.892Z,103287.38
2023-08-29T06:27:00.812Z,103295.66
2023-08-29T06:31:08.679Z,103305.69
2023-08-29T06:35:13.334Z,103300.50
2023-08-29T06:39:16.469Z,103315.66
2023-08-29T06:43:19.384Z,103332.63
2023-08-29T06:47:22.417Z,103326.44
2023-08-29T06:51:26.723Z,103325.41
2023-08-29T06:55:29.939Z,103334.34
2023-08-29T06:59:33.558Z,103346.94
2023-08-29T07:03:36.669Z,103357.38
2023-08-29T07:07:41.751Z,103365.88
2023-08-29T07:11:44.772Z,103381.88
2023-08-29T07:15:48.267Z,103389.84
2023-08-29T07:19:51.195Z,103404.16
2023-08-29T07:23:56.501Z,103397.91
2023-08-29T07:28:00.294Z,103405.53
2023-08-29T07:32:03.542Z,103428.44
2023-08-29T07:36:06.699Z,103456.06
2023-08-29T07:40:12.725Z,103470.72
2023-08-29T07:44:15.678Z,103485.53
2023-08-29T07:48:18.770Z,103494.97
2023-08-29T07:52:21.755Z,103501.28
2023-08-29T07:56:26.061Z,103543.53
2023-08-29T08:00:29.564Z,103601.53
2023-08-29T08:04:32.643Z,103652.97
2023-08-29T08:08:35.614Z,103804.31
2023-08-29T08:12:40.451Z,104026.66
2023-08-29T08:16:43.450Z,104218.53
2023-08-29T08:20:46.725Z,104089.16
2023-08-29T08:24:49.717Z,103807.44
2023-08-29T08:28:55.186Z,103294.25
2023-08-29T08:32:58.121Z,102269.22
2023-08-29T08:37:01.166Z,101235.19
2023-08-29T08:41:05.639Z,100979.28
2023-08-29T08:45:11.625Z,100908.47
2023-08-29T08:49:14.972Z,100628.16
2023-08-29T08:53:20.431Z,100524.81
2023-08-29T08:57:23.492Z,100397.03
2023-08-29T09:01:28.028Z,100381.00
2023-08-29T09:05:30.958Z,100403.50
2023-08-29T09:09:33.921Z,100397.03
2023-08-29T09:13:36.915Z,100358.53
2023-08-29T09:17:47.386Z,100339.81
2023-08-29T09:21:50.348Z,100308.03
2023-08-29T09:25:57.331Z,100283.94
2023-08-29T09:30:08.381Z,100263.47
2023-08-29T09:34:23.526Z,100204.88
2023-08-29T09:38:30.139Z,100180.13
2023-08-29T09:42:33.108Z,100174.63
2023-08-29T09:46:37.131Z,100171.66
2023-08-29T09:50:43.390Z,100164.28
2023-08-29T09:54:47.255Z,100171.66
2023-08-29T09:58:51.598Z,100149.25
2023-08-29T10:02:57.873Z,100145.50
2023-08-29T10:07:03.280Z,100149.84
2023-08-29T10:11:07.675Z,100139.69
2023-08-29T10:15:11.387Z,100134.22
2023-08-29T10:19:17.870Z,100124.75
2023-08-29T10:23:22.996Z,100123.41
2023-08-29T10:27:26.204Z,100114.25
2023-08-29T10:31:29.906Z,100110.47
2023-08-29T10:35:33.644Z,100121.97
2023-08-29T10:39:38.030Z,100122.66
2023-08-29T10:43:41.039Z,100111.81
2023-08-29T10:47:48.307Z,100117.06
2023-08-29T10:52:06.324Z,100131.81
2023-08-29T10:56:11.456Z,100126.88
2023-08-29T11:00:17.903Z,100125.72
2023-08-29T11:04:23.815Z,100114.88
2023-08-29T11:08:27.073Z,100119.94
2023-08-29T11:12:31.535Z,100107.09
2023-08-29T11:16:36.524Z,100102.13
2023-08-29T11:20:39.674Z,100104.34
2023-08-29T11:24:43.132Z,100097.91
2023-08-29T11:28:49.011Z,100099.97
2023-08-29T11:32:52.250Z,100092.44
2023-08-29T11:36:55.608Z,100098.72
2023-08-29T11:41:04.179Z,100088.97
2023-08-29T11:45:45.356Z,100100.91
2023-08-29T11:49:42.449Z,100106.41
2023-08-29T11:53:45.567Z,100100.78
2023-08-29T11:57:48.588Z,100102.56
2023-08-29T12:01:53.141Z,100094.91
2023-08-29T12:05:59.628Z,100100.41
2023-08-29T12:10:08.514Z,100100.59
2023-08-29T12:14:11.449Z,100096.63
2023-08-29T12:18:25.973Z,100084.38
2023-08-29T12:22:32.335Z,100089.28
2023-08-29T12:26:35.338Z,100081.28
2023-08-29T12:30:39.015Z,100087.31
2023-08-29T12:34:45.028Z,100085.59
2023-08-29T12:38:48.020Z,100091.44
2023-08-29T12:42:52.626Z,100097.81
2023-08-29T12:46:55.678Z,100070.72
2023-08-29T12:51:03.501Z,100067.63
2023-08-29T12:55:07.301Z,100062.53
2023-08-29T12:59:11.071Z,100046.00
2023-08-29T13:03:14.467Z,100041.22
2023-08-29T13:07:18.821Z,100035.44
2023-08-29T13:11:21.888Z,100024.31
2023-08-29T13:15:28.686Z,100032.75
2023-08-29T13:19:40.360Z,100030.91
2023-08-29T13:23:45.010Z,100025.34
2023-08-29T13:27:49.927Z,100022.50
2023-08-29T13:31:53.407Z,100027.91
2023-08-29T13:35:56.379Z,100020.53
2023-08-29T13:40:00.820Z,100027.00
2023-08-29T13:44:09.393Z,100018.88
2023-08-29T13:48:15.337Z,100008.78
2023-08-29T13:52:18.290Z,100016.50
2023-08-29T13:56:22.916Z,100019.44
2023-08-29T14:00:25.961Z,100018.19
2023-08-29T14:04:29.000Z,100015.41
2023-08-29T14:08:31.948Z,100019.91
2023-08-29T14:12:36.517Z,100006.13
2023-08-29T14:16:41.893Z,100002.75
2023-08-29T14:20:46.558Z,100011.25
2023-08-29T14:24:49.690Z,100027.59
2023-08-29T14:28:53.944Z,100018.75
2023-08-29T14:32:57.634Z,100024.63
2023-08-29T14:37:00.943Z,100038.09
2023-08-29T14:41:07.775Z,100033.94
2023-08-29T14:45:12.418Z,100037.13
2023-08-29T14:49:16.431Z,100036.78
2023-08-29T14:53:19.526Z,100022.75
2023-08-29T14:57:23.488Z,100013.50
2023-08-29T15:01:28.112Z,100016.47
2023-08-29T15:05:31.462Z,100014.84
2023-08-29T15:09:34.642Z,100028.56
2023-08-29T15:13:43.578Z,100021.31
2023-08-29T15:17:47.976Z,100007.69
2023-08-29T15:21:51.840Z,99998.94
2023-08-29T15:25:54.881Z,100005.59
2023-08-29T15:29:57.911Z,100005.72
2023-08-29T15:34:02.453Z,100001.13
2023-08-29T15:38:05.760Z,99994.63
2023-08-29T15:42:09.288Z,99990.19
2023-08-29T15:46:12.320Z,99993.75
2023-08-29T15:50:17.015Z,99989.91
2023-08-29T15:54:20.273Z,100008.16
2023-08-29T15:58:23.200Z,100009.38
2023-08-29T16:02:26.195Z,100007.47
2023-08-29T16:06:30.584Z,100010.88
2023-08-29T16:10:33.525Z,100004.81
2023-08-29T16:14:36.591Z,100007.72
2023-08-29T16:18:39.611Z,100003.41
2023-08-29T16:22:43.927Z,100001.09
2023-08-29T16:26:46.957Z,99999.75
2023-08-29T16:30:49.990Z,99998.22
2023-08-29T16:34:54.420Z,100000.28
2023-08-29T16:38:58.691Z,100001.63
2023-08-29T16:43:01.909Z,99991.22
2023-08-29T16:47:05.149Z,99990.75
2023-08-29T16:51:08.178Z,99989.84
2023-08-29T16:55:13.143Z,99987.41
2023-08-29T16:59:16.216Z,99988.69
2023-08-29T17:03:20.674Z,99987.59
2023-08-29T17:07:23.903Z,99988.78
2023-08-29T17:11:28.332Z,99992.72
2023-08-29T17:15:31.292Z,99986.13
2023-08-29T17:19:34.590Z,99979.75
2023-08-29T17:23:37.519Z,99974.44
2023-08-29T17:27:42.202Z,99980.06
2023-08-29T17:31:45.167Z,99977.59
2023-08-29T17:35:48.649Z,99977.94
2023-08-29T17:39:51.640Z,99974.31
2023-08-29T17:43:56.005Z,99987.41
2023-08-29T17:47:59.002Z,99980.56
2023-08-29T17:52:01.999Z,99991.41
2023-08-29T17:56:05.102Z,99999.63
2023-08-29T18:00:11.385Z,100008.22
2023-08-29T18:04:14.427Z,100005.72
2023-08-29T18:08:17.594Z,100029.97
2023-08-29T18:12:20.635Z,100042.00
2023-08-29T18:16:25.029Z,100074.97
2023-08-29T18:20:28.002Z,100102.13
2023-08-29T18:24:30.879Z,100140.91
2023-08-29T18:28:34.374Z,100158.97
2023-08-29T18:32:38.634Z,100204.56
2023-08-29T18:36:41.668Z,100216.41
2023-08-29T18:40:44.753Z,100230.56
2023-08-29T18:44:47.726Z,100228.63
2023-08-29T18:48:52.448Z,100230.75
2023-08-29T18:52:56.911Z,100259.38
2023-08-29T18:57:00.177Z,100302.38
2023-08-29T19:01:03.283Z,100351.47
2023-08-29T19:05:08.343Z,100395.69
2023-08-29T19:09:11.525Z,100443.00
2023-08-29T19:13:14.889Z,100469.22
2023-08-29T19:17:17.889Z,100472.56
2023-08-29T19:21:22.779Z,100468.38
2023-08-29T19:25:26.146Z,100449.47
2023-08-29T19:29:29.079Z,100449.69
2023-08-29T19:33:32.611Z,100442.00
2023-08-29T19:37:36.902Z,100449.97
2023-08-29T19:41:39.820Z,100450.78
2023-08-29T19:45:42.833Z,100469.22
2023-08-29T19:49:48.571Z,100469.72
2023-08-29T19:53:52.911Z,100469.16
2023-08-29T19:57:56.495Z,100455.56
2023-08-29T20:01:59.487Z,100417.97
2023-08-29T20:06:02.525Z,100407.19
2023-08-29T20:10:08.316Z,100403.47
2023-08-29T20:14:11.353Z,100405.66
2023-08-29T20:18:14.373Z,100411.09
2023-08-29T20:22:17.344Z,100430.38
2023-08-29T20:26:22.506Z,100443.44
2023-08-29T20:30:26.143Z,100482.00
2023-08-29T20:34:29.164Z,100562.56
2023-08-29T20:38:32.165Z,100624.16
2023-08-29T20:42:37.139Z,100802.59
2023-08-29T20:46:40.191Z,100860.22
2023-08-29T20:50:43.549Z,100897.97
2023-08-29T20:54:46.494Z,100940.31
2023-08-29T20:58:50.765Z,100990.44
2023-08-29T21:02:56.107Z,101024.41
2023-08-29T21:06:59.247Z,101036.66
2023-08-29T21:11:02.245Z,101045.78
2023-08-29T21:15:07.231Z,101055.38
2023-08-29T21:19:13.289Z,101064.63
2023-08-29T21:23:16.477Z,101069.06
2023-08-29T21:27:19.449Z,101069.06
2023-08-29T21:31:23.964Z,101065.09
2023-08-29T21:35:27.123Z,101058.75
2023-08-29T21:39:30.962Z,101050.19
2023-08-29T21:43:34.025Z,101047.41
2023-08-29T21:47:38.317Z,101033.53
2023-08-29T21:51:41.255Z,101037.38
2023-08-29T21:55:44.595Z,101031.66
2023-08-29T21:59:47.555Z,101025.16
2023-08-29T22:03:52.138Z,101022.69
2023-08-29T22:07:55.163Z,101034.94
2023-08-29T22:11:58.527Z,101034.31
2023-08-29T22:16:01.464Z,101041.69
2023-08-29T22:20:06.472Z,101054.25
2023-08-29T22:24:09.814Z,101059.59
2023-08-29T22:28:12.734Z,101080.94
2023-08-29T22:32:15.727Z,101107.63
2023-08-29T22:36:19.954Z,101128.09
2023-08-29T22:40:23.071Z,101159.59
2023-08-29T22:44:26.231Z,101207.50
2023-08-29T22:48:29.148Z,101353.53
2023-08-29T22:52:33.970Z,101452.44
2023-08-29T22:56:36.862Z,101570.66
2023-08-29T23:00:39.724Z,101620.38
2023-08-29T23:04:42.883Z,101651.28
2023-08-29T23:08:48.081Z,102231.25
2023-08-29T23:12:51.060Z,102431.38
2023-08-29T23:16:54.184Z,103810.00
2023-08-29T23:20:57.089Z,103791.81
2023-08-29T23:25:01.427Z,103781.59
2023-08-29T23:29:04.665Z,103764.44
2023-08-29T23:33:08.148Z,103745.97
2023-08-29T23:37:11.102Z,103729.59
2023-08-29T23:41:15.349Z,103695.34
2023-08-29T23:45:18.383Z,103620.91
2023-08-29T23:49:21.333Z,103542.09
2023-08-29T23:53:24.272Z,103404.97
2023-08-29T23:57:28.800Z,103389.75
